Terminal Aerodrome Forecast
Issued by NWS Paducah, KY

Home | Current Version | Previous Version | Graphics & Text | Print | Product List | Glossary On
Versions: 1 2 3 4 5 6 7 8 9 10 11 12 13
000
FTUS43 KPAH 240914 AAA
TAFPAH
TAF AMD
KPAH 240914Z 2409/2506 32005KT P6SM -RA SCT015 OVC060
      TEMPO 2411/2415 4SM -RA BR BKN010
     FM241500 32009KT P6SM BKN030
     FM250000 28004KT P6SM SCT100=

USA.gov is the U.S. government's official web portal to all federal, state and local government web resources and services.